sensor_id;sensor_type;location;lat;lon;timestamp;P1;durP1;ratioP1;P2;durP2;ratioP2
37097;SDS011;63608;49.572;12.348;2023-04-08T00:00:07;9.80;;;8.50;;
37097;SDS011;63608;49.572;12.348;2023-04-08T00:02:15;10.70;;;9.40;;
37097;SDS011;63608;49.572;12.348;2023-04-08T00:04:17;12.27;;;10.30;;
37097;SDS011;63608;49.572;12.348;2023-04-08T00:06:23;13.13;;;11.10;;
37097;SDS011;63608;49.572;12.348;2023-04-08T00:08:28;9.23;;;8.33;;
37097;SDS011;63608;49.572;12.348;2023-04-08T00:10:30;11.73;;;8.50;;
37097;SDS011;63608;49.572;12.348;2023-04-08T00:14:37;10.67;;;8.63;;
37097;SDS011;63608;49.572;12.348;2023-04-08T00:16:40;9.70;;;8.70;;
37097;SDS011;63608;49.572;12.348;2023-04-08T00:18:44;10.87;;;8.63;;
37097;SDS011;63608;49.572;12.348;2023-04-08T00:20:46;11.93;;;10.13;;
37097;SDS011;63608;49.572;12.348;2023-04-08T00:22:52;12.30;;;10.10;;
37097;SDS011;63608;49.572;12.348;2023-04-08T00:24:56;13.00;;;10.27;;
37097;SDS011;63608;49.572;12.348;2023-04-08T00:27:05;11.70;;;9.30;;
37097;SDS011;63608;49.572;12.348;2023-04-08T00:29:08;11.37;;;9.93;;
37097;SDS011;63608;49.572;12.348;2023-04-08T00:31:10;12.67;;;10.23;;
37097;SDS011;63608;49.572;12.348;2023-04-08T00:33:15;11.60;;;10.30;;
37097;SDS011;63608;49.572;12.348;2023-04-08T00:35:19;12.70;;;10.67;;
37097;SDS011;63608;49.572;12.348;2023-04-08T00:37:23;15.00;;;10.53;;
37097;SDS011;63608;49.572;12.348;2023-04-08T00:39:27;10.83;;;9.70;;
37097;SDS011;63608;49.572;12.348;2023-04-08T00:41:37;11.10;;;10.00;;
37097;SDS011;63608;49.572;12.348;2023-04-08T00:43:39;12.67;;;10.57;;
37097;SDS011;63608;49.572;12.348;2023-04-08T00:45:42;18.13;;;10.43;;
37097;SDS011;63608;49.572;12.348;2023-04-08T00:47:47;12.20;;;10.73;;
37097;SDS011;63608;49.572;12.348;2023-04-08T00:49:51;11.50;;;10.30;;
37097;SDS011;63608;49.572;12.348;2023-04-08T00:51:54;11.83;;;10.43;;
37097;SDS011;63608;49.572;12.348;2023-04-08T00:53:57;11.43;;;10.27;;
37097;SDS011;63608;49.572;12.348;2023-04-08T00:56:03;11.77;;;10.23;;
37097;SDS011;63608;49.572;12.348;2023-04-08T00:58:10;12.20;;;10.90;;
37097;SDS011;63608;49.572;12.348;2023-04-08T01:00:16;17.60;;;11.03;;
37097;SDS011;63608;49.572;12.348;2023-04-08T01:02:24;10.60;;;8.93;;
37097;SDS011;63608;49.572;12.348;2023-04-08T01:04:32;9.23;;;8.27;;
37097;SDS011;63608;49.572;12.348;2023-04-08T01:06:42;10.87;;;9.20;;
37097;SDS011;63608;49.572;12.348;2023-04-08T01:08:52;12.80;;;10.67;;
37097;SDS011;63608;49.572;12.348;2023-04-08T01:11:00;12.53;;;11.20;;
37097;SDS011;63608;49.572;12.348;2023-04-08T01:13:06;13.73;;;11.30;;
37097;SDS011;63608;49.572;12.348;2023-04-08T01:15:14;12.23;;;10.93;;
37097;SDS011;63608;49.572;12.348;2023-04-08T01:17:18;13.60;;;10.83;;
37097;SDS011;63608;49.572;12.348;2023-04-08T01:19:23;11.03;;;9.83;;
37097;SDS011;63608;49.572;12.348;2023-04-08T01:21:29;10.67;;;8.67;;
37097;SDS011;63608;49.572;12.348;2023-04-08T01:23:40;13.13;;;9.03;;
37097;SDS011;63608;49.572;12.348;2023-04-08T01:25:48;10.40;;;9.40;;
37097;SDS011;63608;49.572;12.348;2023-04-08T01:27:51;11.00;;;9.80;;
37097;SDS011;63608;49.572;12.348;2023-04-08T01:29:57;11.93;;;9.83;;
37097;SDS011;63608;49.572;12.348;2023-04-08T01:32:00;9.60;;;8.60;;
37097;SDS011;63608;49.572;12.348;2023-04-08T01:34:04;10.40;;;9.27;;
37097;SDS011;63608;49.572;12.348;2023-04-08T01:36:12;12.30;;;10.40;;
37097;SDS011;63608;49.572;12.348;2023-04-08T01:38:15;12.80;;;10.20;;
37097;SDS011;63608;49.572;12.348;2023-04-08T01:40:20;15.10;;;10.97;;
37097;SDS011;63608;49.572;12.348;2023-04-08T01:42:25;11.43;;;10.30;;
37097;SDS011;63608;49.572;12.348;2023-04-08T01:44:29;11.60;;;9.50;;
37097;SDS011;63608;49.572;12.348;2023-04-08T01:46:33;10.40;;;9.30;;
37097;SDS011;63608;49.572;12.348;2023-04-08T01:48:42;11.97;;;9.33;;
37097;SDS011;63608;49.572;12.348;2023-04-08T01:50:47;12.20;;;9.80;;
37097;SDS011;63608;49.572;12.348;2023-04-08T01:52:56;12.40;;;10.20;;
37097;SDS011;63608;49.572;12.348;2023-04-08T01:55:05;10.10;;;9.03;;
37097;SDS011;63608;49.572;12.348;2023-04-08T01:57:13;11.27;;;9.43;;
37097;SDS011;63608;49.572;12.348;2023-04-08T01:59:23;12.13;;;10.30;;
37097;SDS011;63608;49.572;12.348;2023-04-08T02:01:29;12.53;;;10.20;;
37097;SDS011;63608;49.572;12.348;2023-04-08T02:03:38;14.63;;;9.77;;
37097;SDS011;63608;49.572;12.348;2023-04-08T02:05:44;14.00;;;11.03;;
37097;SDS011;63608;49.572;12.348;2023-04-08T02:07:49;11.83;;;10.63;;
37097;SDS011;63608;49.572;12.348;2023-04-08T02:09:57;8.63;;;7.73;;
37097;SDS011;63608;49.572;12.348;2023-04-08T02:12:03;9.17;;;8.27;;
37097;SDS011;63608;49.572;12.348;2023-04-08T02:14:06;9.60;;;8.70;;
37097;SDS011;63608;49.572;12.348;2023-04-08T02:16:17;11.40;;;10.20;;
37097;SDS011;63608;49.572;12.348;2023-04-08T02:18:24;12.03;;;10.70;;
37097;SDS011;63608;49.572;12.348;2023-04-08T02:20:33;12.20;;;10.90;;
37097;SDS011;63608;49.572;12.348;2023-04-08T02:22:41;14.00;;;11.37;;
37097;SDS011;63608;49.572;12.348;2023-04-08T02:27:26;12.80;;;11.13;;
37097;SDS011;63608;49.572;12.348;2023-04-08T02:29:35;11.70;;;10.47;;
37097;SDS011;63608;49.572;12.348;2023-04-08T02:31:42;13.27;;;11.67;;
37097;SDS011;63608;49.572;12.348;2023-04-08T02:33:45;12.60;;;10.60;;
37097;SDS011;63608;49.572;12.348;2023-04-08T02:35:51;13.17;;;10.83;;
37097;SDS011;63608;49.572;12.348;2023-04-08T02:37:56;12.90;;;11.10;;
37097;SDS011;63608;49.572;12.348;2023-04-08T02:39:59;14.50;;;11.27;;
37097;SDS011;63608;49.572;12.348;2023-04-08T02:42:02;13.80;;;11.73;;
37097;SDS011;63608;49.572;12.348;2023-04-08T02:44:05;12.13;;;10.53;;
37097;SDS011;63608;49.572;12.348;2023-04-08T02:46:10;14.90;;;10.80;;
37097;SDS011;63608;49.572;12.348;2023-04-08T02:48:15;16.37;;;11.60;;
37097;SDS011;63608;49.572;12.348;2023-04-08T02:50:19;17.73;;;11.47;;
37097;SDS011;63608;49.572;12.348;2023-04-08T02:52:26;13.87;;;11.03;;
37097;SDS011;63608;49.572;12.348;2023-04-08T02:54:28;12.73;;;10.70;;
37097;SDS011;63608;49.572;12.348;2023-04-08T02:56:31;16.27;;;10.70;;
37097;SDS011;63608;49.572;12.348;2023-04-08T02:58:33;16.03;;;11.03;;
37097;SDS011;63608;49.572;12.348;2023-04-08T03:00:36;13.47;;;10.97;;
37097;SDS011;63608;49.572;12.348;2023-04-08T03:02:40;16.27;;;11.27;;
37097;SDS011;63608;49.572;12.348;2023-04-08T03:04:47;14.03;;;10.90;;
37097;SDS011;63608;49.572;12.348;2023-04-08T03:06:55;12.90;;;10.87;;
37097;SDS011;63608;49.572;12.348;2023-04-08T03:09:00;15.37;;;11.70;;
37097;SDS011;63608;49.572;12.348;2023-04-08T03:11:03;14.33;;;11.50;;
37097;SDS011;63608;49.572;12.348;2023-04-08T03:13:08;16.40;;;12.17;;
37097;SDS011;63608;49.572;12.348;2023-04-08T03:15:11;13.60;;;11.63;;
37097;SDS011;63608;49.572;12.348;2023-04-08T03:17:13;13.70;;;11.77;;
37097;SDS011;63608;49.572;12.348;2023-04-08T03:19:19;15.77;;;12.40;;
37097;SDS011;63608;49.572;12.348;2023-04-08T03:21:23;18.13;;;13.17;;
37097;SDS011;63608;49.572;12.348;2023-04-08T03:23:26;17.00;;;12.47;;
37097;SDS011;63608;49.572;12.348;2023-04-08T03:25:28;16.90;;;12.90;;
37097;SDS011;63608;49.572;12.348;2023-04-08T03:27:31;17.00;;;12.97;;
37097;SDS011;63608;49.572;12.348;2023-04-08T03:29:36;17.60;;;13.60;;
37097;SDS011;63608;49.572;12.348;2023-04-08T03:31:39;18.03;;;13.53;;
37097;SDS011;63608;49.572;12.348;2023-04-08T03:33:41;17.40;;;13.93;;
37097;SDS011;63608;49.572;12.348;2023-04-08T03:35:48;16.90;;;12.70;;
37097;SDS011;63608;49.572;12.348;2023-04-08T03:37:59;18.40;;;13.83;;
37097;SDS011;63608;49.572;12.348;2023-04-08T03:40:02;18.87;;;13.90;;
37097;SDS011;63608;49.572;12.348;2023-04-08T03:42:05;18.77;;;13.70;;
37097;SDS011;63608;49.572;12.348;2023-04-08T03:44:07;18.70;;;14.47;;
37097;SDS011;63608;49.572;12.348;2023-04-08T03:46:11;18.03;;;14.07;;
37097;SDS011;63608;49.572;12.348;2023-04-08T03:48:16;19.43;;;14.00;;
37097;SDS011;63608;49.572;12.348;2023-04-08T03:50:18;22.33;;;15.50;;
37097;SDS011;63608;49.572;12.348;2023-04-08T03:52:24;19.80;;;14.53;;
37097;SDS011;63608;49.572;12.348;2023-04-08T03:54:30;19.53;;;14.83;;
37097;SDS011;63608;49.572;12.348;2023-04-08T03:56:33;17.63;;;14.07;;
37097;SDS011;63608;49.572;12.348;2023-04-08T03:58:36;18.37;;;13.90;;
37097;SDS011;63608;49.572;12.348;2023-04-08T04:00:38;21.03;;;14.77;;
37097;SDS011;63608;49.572;12.348;2023-04-08T04:02:40;18.60;;;14.80;;
37097;SDS011;63608;49.572;12.348;2023-04-08T04:04:43;18.53;;;14.20;;
37097;SDS011;63608;49.572;12.348;2023-04-08T04:06:51;15.80;;;13.10;;
37097;SDS011;63608;49.572;12.348;2023-04-08T04:08:53;25.40;;;17.13;;
37097;SDS011;63608;49.572;12.348;2023-04-08T04:11:01;19.77;;;14.70;;
37097;SDS011;63608;49.572;12.348;2023-04-08T04:13:08;17.00;;;13.70;;
37097;SDS011;63608;49.572;12.348;2023-04-08T04:15:19;22.53;;;15.77;;
37097;SDS011;63608;49.572;12.348;2023-04-08T04:17:22;21.57;;;14.87;;
37097;SDS011;63608;49.572;12.348;2023-04-08T04:19:28;25.33;;;16.60;;
37097;SDS011;63608;49.572;12.348;2023-04-08T04:21:33;18.67;;;13.73;;
37097;SDS011;63608;49.572;12.348;2023-04-08T04:23:36;21.27;;;13.57;;
37097;SDS011;63608;49.572;12.348;2023-04-08T04:25:40;21.07;;;15.50;;
37097;SDS011;63608;49.572;12.348;2023-04-08T04:27:47;19.60;;;13.93;;
37097;SDS011;63608;49.572;12.348;2023-04-08T04:29:52;21.70;;;14.57;;
37097;SDS011;63608;49.572;12.348;2023-04-08T04:31:55;18.73;;;14.97;;
37097;SDS011;63608;49.572;12.348;2023-04-08T04:33:59;17.80;;;14.13;;
37097;SDS011;63608;49.572;12.348;2023-04-08T04:36:01;18.67;;;14.37;;
37097;SDS011;63608;49.572;12.348;2023-04-08T04:38:04;18.13;;;14.60;;
37097;SDS011;63608;49.572;12.348;2023-04-08T04:40:11;18.20;;;14.30;;
37097;SDS011;63608;49.572;12.348;2023-04-08T04:45:13;20.17;;;14.37;;
37097;SDS011;63608;49.572;12.348;2023-04-08T04:47:17;18.37;;;14.93;;
37097;SDS011;63608;49.572;12.348;2023-04-08T04:49:28;18.17;;;14.10;;
37097;SDS011;63608;49.572;12.348;2023-04-08T04:51:34;18.50;;;14.63;;
37097;SDS011;63608;49.572;12.348;2023-04-08T04:53:37;18.87;;;13.73;;
37097;SDS011;63608;49.572;12.348;2023-04-08T04:55:41;17.50;;;13.93;;
37097;SDS011;63608;49.572;12.348;2023-04-08T04:57:47;17.13;;;14.07;;
37097;SDS011;63608;49.572;12.348;2023-04-08T04:59:50;19.10;;;14.23;;
37097;SDS011;63608;49.572;12.348;2023-04-08T05:01:55;15.23;;;12.23;;
37097;SDS011;63608;49.572;12.348;2023-04-08T05:03:57;17.63;;;14.23;;
37097;SDS011;63608;49.572;12.348;2023-04-08T05:06:04;17.53;;;13.80;;
37097;SDS011;63608;49.572;12.348;2023-04-08T05:08:07;17.50;;;14.00;;
37097;SDS011;63608;49.572;12.348;2023-04-08T05:10:12;17.97;;;14.10;;
37097;SDS011;63608;49.572;12.348;2023-04-08T05:12:15;16.80;;;13.07;;
37097;SDS011;63608;49.572;12.348;2023-04-08T05:14:20;17.10;;;13.97;;
37097;SDS011;63608;49.572;12.348;2023-04-08T05:16:26;15.03;;;12.33;;
37097;SDS011;63608;49.572;12.348;2023-04-08T05:18:38;16.90;;;13.13;;
37097;SDS011;63608;49.572;12.348;2023-04-08T05:20:40;16.07;;;12.87;;
37097;SDS011;63608;49.572;12.348;2023-04-08T05:22:45;16.30;;;13.30;;
37097;SDS011;63608;49.572;12.348;2023-04-08T05:24:48;20.17;;;13.83;;
37097;SDS011;63608;49.572;12.348;2023-04-08T05:26:50;16.87;;;13.20;;
37097;SDS011;63608;49.572;12.348;2023-04-08T05:28:53;15.10;;;12.50;;
37097;SDS011;63608;49.572;12.348;2023-04-08T05:30:58;14.03;;;11.60;;
37097;SDS011;63608;49.572;12.348;2023-04-08T05:33:00;17.70;;;13.00;;
37097;SDS011;63608;49.572;12.348;2023-04-08T05:35:06;13.87;;;11.73;;
37097;SDS011;63608;49.572;12.348;2023-04-08T05:37:12;14.33;;;12.07;;
37097;SDS011;63608;49.572;12.348;2023-04-08T05:39:15;16.50;;;12.37;;
37097;SDS011;63608;49.572;12.348;2023-04-08T05:41:18;15.73;;;12.57;;
37097;SDS011;63608;49.572;12.348;2023-04-08T05:43:20;16.00;;;12.60;;
37097;SDS011;63608;49.572;12.348;2023-04-08T05:45:23;14.77;;;12.20;;
37097;SDS011;63608;49.572;12.348;2023-04-08T05:47:26;16.40;;;12.67;;
37097;SDS011;63608;49.572;12.348;2023-04-08T05:49:32;13.27;;;11.63;;
37097;SDS011;63608;49.572;12.348;2023-04-08T05:51:36;15.53;;;12.30;;
37097;SDS011;63608;49.572;12.348;2023-04-08T05:53:41;14.90;;;11.50;;
37097;SDS011;63608;49.572;12.348;2023-04-08T05:55:46;13.93;;;10.90;;
37097;SDS011;63608;49.572;12.348;2023-04-08T05:57:48;13.17;;;11.67;;
37097;SDS011;63608;49.572;12.348;2023-04-08T05:59:50;16.47;;;12.13;;
37097;SDS011;63608;49.572;12.348;2023-04-08T06:01:53;14.33;;;11.67;;
37097;SDS011;63608;49.572;12.348;2023-04-08T06:03:57;15.80;;;12.43;;
37097;SDS011;63608;49.572;12.348;2023-04-08T06:06:00;15.87;;;11.40;;
37097;SDS011;63608;49.572;12.348;2023-04-08T06:08:04;16.60;;;11.83;;
37097;SDS011;63608;49.572;12.348;2023-04-08T06:10:07;14.73;;;11.43;;
37097;SDS011;63608;49.572;12.348;2023-04-08T06:12:17;14.07;;;12.03;;
37097;SDS011;63608;49.572;12.348;2023-04-08T06:14:21;13.20;;;11.63;;
37097;SDS011;63608;49.572;12.348;2023-04-08T06:16:23;12.97;;;10.87;;
37097;SDS011;63608;49.572;12.348;2023-04-08T06:18:28;14.10;;;11.50;;
37097;SDS011;63608;49.572;12.348;2023-04-08T06:20:31;13.77;;;10.87;;
37097;SDS011;63608;49.572;12.348;2023-04-08T06:22:34;13.43;;;10.50;;
37097;SDS011;63608;49.572;12.348;2023-04-08T06:24:42;14.80;;;10.77;;
37097;SDS011;63608;49.572;12.348;2023-04-08T06:26:50;11.07;;;9.87;;
37097;SDS011;63608;49.572;12.348;2023-04-08T06:28:55;11.97;;;10.53;;
37097;SDS011;63608;49.572;12.348;2023-04-08T06:30:58;10.97;;;9.80;;
37097;SDS011;63608;49.572;12.348;2023-04-08T06:33:01;11.57;;;10.30;;
37097;SDS011;63608;49.572;12.348;2023-04-08T06:35:04;12.10;;;10.30;;
37097;SDS011;63608;49.572;12.348;2023-04-08T06:37:08;12.30;;;11.00;;
37097;SDS011;63608;49.572;12.348;2023-04-08T06:39:11;12.27;;;10.00;;
37097;SDS011;63608;49.572;12.348;2023-04-08T06:41:15;9.70;;;8.70;;
37097;SDS011;63608;49.572;12.348;2023-04-08T06:43:20;10.10;;;9.10;;
37097;SDS011;63608;49.572;12.348;2023-04-08T06:45:23;11.00;;;9.47;;
37097;SDS011;63608;49.572;12.348;2023-04-08T06:47:28;13.03;;;11.13;;
37097;SDS011;63608;49.572;12.348;2023-04-08T06:49:30;10.43;;;9.27;;
37097;SDS011;63608;49.572;12.348;2023-04-08T06:51:33;10.00;;;9.10;;
37097;SDS011;63608;49.572;12.348;2023-04-08T06:53:36;11.50;;;10.40;;
37097;SDS011;63608;49.572;12.348;2023-04-08T06:55:38;10.03;;;9.03;;
37097;SDS011;63608;49.572;12.348;2023-04-08T06:57:42;9.77;;;8.87;;
37097;SDS011;63608;49.572;12.348;2023-04-08T06:59:45;9.67;;;8.67;;
37097;SDS011;63608;49.572;12.348;2023-04-08T07:01:47;9.57;;;8.33;;
37097;SDS011;63608;49.572;12.348;2023-04-08T07:03:51;8.97;;;7.60;;
37097;SDS011;63608;49.572;12.348;2023-04-08T07:05:58;8.90;;;8.03;;
37097;SDS011;63608;49.572;12.348;2023-04-08T07:08:02;8.27;;;7.53;;
37097;SDS011;63608;49.572;12.348;2023-04-08T07:10:05;7.93;;;7.17;;
37097;SDS011;63608;49.572;12.348;2023-04-08T07:12:08;9.53;;;8.63;;
37097;SDS011;63608;49.572;12.348;2023-04-08T07:14:13;8.77;;;7.90;;
37097;SDS011;63608;49.572;12.348;2023-04-08T07:16:17;7.10;;;6.50;;
37097;SDS011;63608;49.572;12.348;2023-04-08T07:18:19;7.20;;;6.60;;
37097;SDS011;63608;49.572;12.348;2023-04-08T07:20:22;7.30;;;6.70;;
37097;SDS011;63608;49.572;12.348;2023-04-08T07:22:25;8.13;;;7.33;;
37097;SDS011;63608;49.572;12.348;2023-04-08T07:24:27;8.50;;;7.70;;
37097;SDS011;63608;49.572;12.348;2023-04-08T07:26:30;8.03;;;7.23;;
37097;SDS011;63608;49.572;12.348;2023-04-08T07:28:33;8.07;;;7.27;;
37097;SDS011;63608;49.572;12.348;2023-04-08T07:30:38;9.40;;;8.60;;
37097;SDS011;63608;49.572;12.348;2023-04-08T07:32:40;9.20;;;8.30;;
37097;SDS011;63608;49.572;12.348;2023-04-08T07:34:45;8.03;;;7.23;;
37097;SDS011;63608;49.572;12.348;2023-04-08T07:36:52;9.07;;;8.17;;
37097;SDS011;63608;49.572;12.348;2023-04-08T07:38:54;7.10;;;6.50;;
37097;SDS011;63608;49.572;12.348;2023-04-08T07:40:58;7.20;;;6.60;;
37097;SDS011;63608;49.572;12.348;2023-04-08T07:43:00;7.43;;;6.80;;
37097;SDS011;63608;49.572;12.348;2023-04-08T07:45:10;7.93;;;7.27;;
37097;SDS011;63608;49.572;12.348;2023-04-08T07:47:16;7.07;;;6.57;;
37097;SDS011;63608;49.572;12.348;2023-04-08T07:49:19;7.20;;;6.60;;
37097;SDS011;63608;49.572;12.348;2023-04-08T07:51:25;7.20;;;6.60;;
37097;SDS011;63608;49.572;12.348;2023-04-08T07:53:32;7.03;;;6.40;;
37097;SDS011;63608;49.572;12.348;2023-04-08T07:55:35;8.07;;;7.37;;
37097;SDS011;63608;49.572;12.348;2023-04-08T07:57:40;7.43;;;6.73;;
37097;SDS011;63608;49.572;12.348;2023-04-08T07:59:45;7.00;;;6.40;;
37097;SDS011;63608;49.572;12.348;2023-04-08T08:01:54;8.00;;;7.30;;
37097;SDS011;63608;49.572;12.348;2023-04-08T08:04:00;6.60;;;6.10;;
37097;SDS011;63608;49.572;12.348;2023-04-08T08:06:13;6.60;;;6.10;;
37097;SDS011;63608;49.572;12.348;2023-04-08T08:08:16;6.60;;;6.10;;
37097;SDS011;63608;49.572;12.348;2023-04-08T08:10:23;6.53;;;5.83;;
37097;SDS011;63608;49.572;12.348;2023-04-08T08:12:32;6.30;;;5.80;;
37097;SDS011;63608;49.572;12.348;2023-04-08T08:14:34;6.50;;;6.00;;
37097;SDS011;63608;49.572;12.348;2023-04-08T08:16:38;6.73;;;6.23;;
37097;SDS011;63608;49.572;12.348;2023-04-08T08:18:40;7.60;;;7.00;;
37097;SDS011;63608;49.572;12.348;2023-04-08T08:20:47;7.00;;;6.43;;
37097;SDS011;63608;49.572;12.348;2023-04-08T08:22:53;6.90;;;6.40;;
37097;SDS011;63608;49.572;12.348;2023-04-08T08:24:55;7.40;;;6.80;;
37097;SDS011;63608;49.572;12.348;2023-04-08T08:27:00;6.60;;;6.00;;
37097;SDS011;63608;49.572;12.348;2023-04-08T08:29:04;6.60;;;6.10;;
37097;SDS011;63608;49.572;12.348;2023-04-08T08:31:08;5.93;;;5.53;;
37097;SDS011;63608;49.572;12.348;2023-04-08T08:33:11;6.93;;;6.33;;
37097;SDS011;63608;49.572;12.348;2023-04-08T08:35:14;6.97;;;6.47;;
37097;SDS011;63608;49.572;12.348;2023-04-08T08:37:22;6.13;;;5.73;;
37097;SDS011;63608;49.572;12.348;2023-04-08T08:39:26;6.40;;;6.00;;
37097;SDS011;63608;49.572;12.348;2023-04-08T08:41:33;6.40;;;5.90;;
37097;SDS011;63608;49.572;12.348;2023-04-08T08:43:37;6.90;;;6.30;;
37097;SDS011;63608;49.572;12.348;2023-04-08T08:45:39;6.90;;;6.40;;
37097;SDS011;63608;49.572;12.348;2023-04-08T08:47:47;6.13;;;5.73;;
37097;SDS011;63608;49.572;12.348;2023-04-08T08:49:52;7.10;;;6.60;;
37097;SDS011;63608;49.572;12.348;2023-04-08T08:51:54;8.83;;;6.10;;
37097;SDS011;63608;49.572;12.348;2023-04-08T08:54:02;6.87;;;6.37;;
37097;SDS011;63608;49.572;12.348;2023-04-08T08:56:05;7.63;;;7.03;;
37097;SDS011;63608;49.572;12.348;2023-04-08T08:58:09;7.47;;;6.87;;
37097;SDS011;63608;49.572;12.348;2023-04-08T09:00:14;7.70;;;7.07;;
37097;SDS011;63608;49.572;12.348;2023-04-08T09:02:24;7.70;;;7.10;;
37097;SDS011;63608;49.572;12.348;2023-04-08T09:04:28;8.60;;;7.90;;
37097;SDS011;63608;49.572;12.348;2023-04-08T09:06:35;9.00;;;8.20;;
37097;SDS011;63608;49.572;12.348;2023-04-08T09:08:39;7.60;;;6.90;;
37097;SDS011;63608;49.572;12.348;2023-04-08T09:10:46;8.33;;;7.63;;
37097;SDS011;63608;49.572;12.348;2023-04-08T09:12:54;9.30;;;8.30;;
37097;SDS011;63608;49.572;12.348;2023-04-08T09:15:02;8.00;;;7.30;;
37097;SDS011;63608;49.572;12.348;2023-04-08T09:17:04;7.33;;;6.73;;
37097;SDS011;63608;49.572;12.348;2023-04-08T09:19:07;7.37;;;6.87;;
37097;SDS011;63608;49.572;12.348;2023-04-08T09:21:11;7.73;;;7.03;;
37097;SDS011;63608;49.572;12.348;2023-04-08T09:23:14;8.70;;;7.90;;
37097;SDS011;63608;49.572;12.348;2023-04-08T09:25:22;8.60;;;7.70;;
37097;SDS011;63608;49.572;12.348;2023-04-08T09:27:34;8.50;;;7.77;;
37097;SDS011;63608;49.572;12.348;2023-04-08T09:29:37;7.07;;;6.57;;
37097;SDS011;63608;49.572;12.348;2023-04-08T09:31:40;7.37;;;6.70;;
37097;SDS011;63608;49.572;12.348;2023-04-08T09:33:43;7.00;;;6.50;;
37097;SDS011;63608;49.572;12.348;2023-04-08T09:35:46;7.53;;;6.93;;
37097;SDS011;63608;49.572;12.348;2023-04-08T09:37:49;6.83;;;6.23;;
37097;SDS011;63608;49.572;12.348;2023-04-08T09:39:51;6.67;;;6.07;;
37097;SDS011;63608;49.572;12.348;2023-04-08T09:41:53;7.83;;;7.23;;
37097;SDS011;63608;49.572;12.348;2023-04-08T09:44:04;7.43;;;6.83;;
37097;SDS011;63608;49.572;12.348;2023-04-08T09:46:08;7.13;;;6.43;;
37097;SDS011;63608;49.572;12.348;2023-04-08T09:48:14;8.07;;;7.37;;
37097;SDS011;63608;49.572;12.348;2023-04-08T09:50:19;7.77;;;6.97;;
37097;SDS011;63608;49.572;12.348;2023-04-08T09:52:29;6.73;;;6.23;;
37097;SDS011;63608;49.572;12.348;2023-04-08T09:54:35;6.47;;;5.97;;
37097;SDS011;63608;49.572;12.348;2023-04-08T09:56:53;7.47;;;6.83;;
37097;SDS011;63608;49.572;12.348;2023-04-08T09:59:08;6.40;;;5.90;;
37097;SDS011;63608;49.572;12.348;2023-04-08T10:01:12;6.70;;;6.13;;
37097;SDS011;63608;49.572;12.348;2023-04-08T10:03:20;7.40;;;6.80;;
37097;SDS011;63608;49.572;12.348;2023-04-08T10:05:28;7.77;;;7.07;;
37097;SDS011;63608;49.572;12.348;2023-04-08T10:07:36;8.20;;;7.50;;
37097;SDS011;63608;49.572;12.348;2023-04-08T10:09:39;7.30;;;6.70;;
37097;SDS011;63608;49.572;12.348;2023-04-08T10:11:42;7.57;;;6.97;;
37097;SDS011;63608;49.572;12.348;2023-04-08T10:13:47;8.50;;;7.70;;
37097;SDS011;63608;49.572;12.348;2023-04-08T10:15:53;8.80;;;8.10;;
37097;SDS011;63608;49.572;12.348;2023-04-08T10:18:29;7.40;;;6.80;;
37097;SDS011;63608;49.572;12.348;2023-04-08T10:20:42;7.90;;;7.20;;
37097;SDS011;63608;49.572;12.348;2023-04-08T10:22:49;8.70;;;7.33;;
37097;SDS011;63608;49.572;12.348;2023-04-08T10:27:37;7.73;;;6.93;;
37097;SDS011;63608;49.572;12.348;2023-04-08T10:29:42;7.40;;;6.70;;
37097;SDS011;63608;49.572;12.348;2023-04-08T10:31:50;7.57;;;6.70;;
37097;SDS011;63608;49.572;12.348;2023-04-08T10:33:56;6.87;;;6.20;;
37097;SDS011;63608;49.572;12.348;2023-04-08T10:36:17;8.10;;;6.93;;
37097;SDS011;63608;49.572;12.348;2023-04-08T10:38:21;9.50;;;7.63;;
37097;SDS011;63608;49.572;12.348;2023-04-08T10:40:28;11.03;;;8.20;;
37097;SDS011;63608;49.572;12.348;2023-04-08T10:42:30;7.30;;;6.67;;
37097;SDS011;63608;49.572;12.348;2023-04-08T10:44:35;8.83;;;7.70;;
37097;SDS011;63608;49.572;12.348;2023-04-08T10:46:43;8.07;;;7.03;;
37097;SDS011;63608;49.572;12.348;2023-04-08T10:48:54;8.00;;;7.20;;
37097;SDS011;63608;49.572;12.348;2023-04-08T10:51:06;8.10;;;7.23;;
37097;SDS011;63608;49.572;12.348;2023-04-08T10:53:11;6.83;;;6.23;;
37097;SDS011;63608;49.572;12.348;2023-04-08T10:55:13;8.70;;;7.80;;
37097;SDS011;63608;49.572;12.348;2023-04-08T10:57:22;7.50;;;6.80;;
37097;SDS011;63608;49.572;12.348;2023-04-08T10:59:28;7.27;;;6.30;;
37097;SDS011;63608;49.572;12.348;2023-04-08T11:01:38;6.80;;;6.20;;
37097;SDS011;63608;49.572;12.348;2023-04-08T11:03:44;8.13;;;7.33;;
37097;SDS011;63608;49.572;12.348;2023-04-08T11:05:49;7.83;;;7.10;;
37097;SDS011;63608;49.572;12.348;2023-04-08T11:07:51;8.07;;;6.70;;
37097;SDS011;63608;49.572;12.348;2023-04-08T11:09:55;8.90;;;7.17;;
37097;SDS011;63608;49.572;12.348;2023-04-08T11:11:59;7.17;;;6.47;;
37097;SDS011;63608;49.572;12.348;2023-04-08T11:14:03;7.20;;;6.50;;
37097;SDS011;63608;49.572;12.348;2023-04-08T11:16:06;7.53;;;6.83;;
37097;SDS011;63608;49.572;12.348;2023-04-08T11:18:09;7.30;;;6.50;;
37097;SDS011;63608;49.572;12.348;2023-04-08T11:20:15;7.57;;;6.80;;
37097;SDS011;63608;49.572;12.348;2023-04-08T11:22:20;11.20;;;7.60;;
37097;SDS011;63608;49.572;12.348;2023-04-08T11:24:22;9.80;;;7.00;;
37097;SDS011;63608;49.572;12.348;2023-04-08T11:26:30;8.17;;;7.37;;
37097;SDS011;63608;49.572;12.348;2023-04-08T11:28:37;14.03;;;11.00;;
37097;SDS011;63608;49.572;12.348;2023-04-08T11:30:40;11.43;;;9.00;;
37097;SDS011;63608;49.572;12.348;2023-04-08T11:32:42;10.63;;;9.10;;
37097;SDS011;63608;49.572;12.348;2023-04-08T11:34:49;7.53;;;6.80;;
37097;SDS011;63608;49.572;12.348;2023-04-08T11:36:55;9.20;;;7.60;;
37097;SDS011;63608;49.572;12.348;2023-04-08T11:39:02;8.70;;;7.30;;
37097;SDS011;63608;49.572;12.348;2023-04-08T11:41:10;9.30;;;7.93;;
37097;SDS011;63608;49.572;12.348;2023-04-08T11:43:13;10.90;;;8.60;;
37097;SDS011;63608;49.572;12.348;2023-04-08T11:45:17;7.97;;;7.17;;
37097;SDS011;63608;49.572;12.348;2023-04-08T11:47:29;8.23;;;7.10;;
37097;SDS011;63608;49.572;12.348;2023-04-08T12:01:11;7.90;;;7.10;;
37097;SDS011;63608;49.572;12.348;2023-04-08T12:03:14;7.03;;;6.40;;
37097;SDS011;63608;49.572;12.348;2023-04-08T12:05:17;6.80;;;6.20;;
37097;SDS011;63608;49.572;12.348;2023-04-08T12:07:21;7.50;;;6.60;;
37097;SDS011;63608;49.572;12.348;2023-04-08T12:09:23;11.17;;;8.40;;
37097;SDS011;63608;49.572;12.348;2023-04-08T12:11:26;7.50;;;6.70;;
37097;SDS011;63608;49.572;12.348;2023-04-08T12:13:29;8.57;;;6.97;;
37097;SDS011;63608;49.572;12.348;2023-04-08T12:15:35;13.67;;;10.30;;
37097;SDS011;63608;49.572;12.348;2023-04-08T12:17:40;7.17;;;6.57;;
37097;SDS011;63608;49.572;12.348;2023-04-08T12:19:43;8.03;;;7.23;;
37097;SDS011;63608;49.572;12.348;2023-04-08T12:21:46;7.53;;;6.83;;
37097;SDS011;63608;49.572;12.348;2023-04-08T12:23:50;7.57;;;6.87;;
37097;SDS011;63608;49.572;12.348;2023-04-08T12:25:53;7.50;;;6.80;;
37097;SDS011;63608;49.572;12.348;2023-04-08T12:28:00;6.77;;;6.10;;
37097;SDS011;63608;49.572;12.348;2023-04-08T12:30:06;6.93;;;6.27;;
37097;SDS011;63608;49.572;12.348;2023-04-08T12:32:10;9.77;;;6.80;;